createdAt,value
2019-01-13T00:01:18.889Z,85.38
2019-01-13T00:03:47.320Z,85.81
2019-01-13T00:06:14.096Z,85.91
2019-01-13T00:08:41.256Z,85.55
2019-01-13T00:11:08.101Z,85.47
2019-01-13T00:13:35.385Z,85.52
2019-01-13T00:16:02.596Z,85.23
2019-01-13T00:18:29.535Z,85.12
2019-01-13T00:21:00.425Z,84.98
2019-01-13T00:23:27.215Z,84.92
2019-01-13T00:25:54.042Z,84.63
2019-01-13T00:28:21.040Z,84.65
2019-01-13T00:30:48.020Z,84.64
2019-01-13T00:33:18.275Z,84.42
2019-01-13T00:35:45.126Z,84.57
2019-01-13T00:38:11.952Z,85.17
2019-01-13T00:40:43.401Z,85.17
2019-01-13T00:43:14.152Z,85.67
2019-01-13T00:45:40.986Z,85.67
2019-01-13T00:48:07.771Z,85.92
2019-01-13T00:50:37.331Z,85.87
2019-01-13T00:53:09.159Z,85.37
2019-01-13T00:55:35.987Z,85.37
2019-01-13T00:58:04.289Z,86.09
2019-01-13T01:00:31.313Z,86.16
2019-01-13T01:02:58.064Z,86.14
2019-01-13T01:05:27.571Z,85.84
2019-01-13T01:07:56.961Z,85.70
2019-01-13T01:10:28.500Z,85.55
2019-01-13T01:12:56.999Z,85.60
2019-01-13T01:15:24.022Z,85.45
2019-01-13T01:17:50.899Z,85.38
2019-01-13T01:20:17.791Z,85.40
2019-01-13T01:22:44.508Z,85.72
2019-01-13T01:25:12.730Z,85.60
2019-01-13T01:27:39.563Z,85.62
2019-01-13T01:30:14.260Z,85.85
2019-01-13T01:32:45.615Z,85.69
2019-01-13T01:35:14.618Z,85.83
2019-01-13T01:37:42.840Z,85.60
2019-01-13T01:40:12.559Z,85.47
2019-01-13T01:42:39.295Z,85.42
2019-01-13T01:45:07.987Z,85.28
2019-01-13T01:47:34.770Z,85.21
2019-01-13T01:50:07.061Z,85.14
2019-01-13T01:52:33.930Z,84.74
2019-01-13T01:55:02.901Z,84.79
2019-01-13T01:57:29.743Z,84.53
2019-01-13T01:59:57.919Z,84.34
2019-01-13T02:02:27.011Z,84.34
2019-01-13T02:04:58.073Z,84.37
2019-01-13T02:07:24.793Z,84.33
2019-01-13T02:09:51.561Z,84.36
2019-01-13T02:12:21.275Z,84.37
2019-01-13T02:14:52.796Z,84.37
2019-01-13T02:17:19.635Z,84.53
2019-01-13T02:19:46.503Z,84.59
2019-01-13T02:22:19.351Z,84.34
2019-01-13T02:24:54.107Z,84.25
2019-01-13T02:27:22.688Z,84.11
2019-01-13T02:29:49.681Z,84.36
2019-01-13T02:32:22.364Z,84.48
2019-01-13T02:34:49.011Z,84.50
2019-01-13T02:37:15.772Z,84.44
2019-01-13T02:39:42.541Z,84.19
2019-01-13T02:42:09.285Z,84.24
2019-01-13T02:44:38.758Z,83.96
2019-01-13T02:47:05.494Z,84.26
2019-01-13T02:49:32.237Z,84.24
2019-01-13T02:52:00.107Z,83.87
2019-01-13T02:54:33.152Z,84.06
2019-01-13T02:56:59.968Z,83.99
2019-01-13T02:59:26.742Z,84.10
2019-01-13T03:01:53.496Z,84.31
2019-01-13T03:04:27.265Z,84.10
2019-01-13T03:06:56.962Z,83.91
2019-01-13T03:09:23.727Z,84.10
2019-01-13T03:11:55.363Z,83.89
2019-01-13T03:14:22.133Z,84.25
2019-01-13T03:16:48.939Z,83.80
2019-01-13T03:19:15.698Z,84.00
2019-01-13T03:21:42.457Z,83.63
2019-01-13T03:24:13.359Z,84.12
2019-01-13T03:26:40.117Z,84.13
2019-01-13T03:29:06.947Z,83.82
2019-01-13T03:31:40.864Z,84.09
2019-01-13T03:34:12.428Z,84.07
2019-01-13T03:36:39.235Z,83.80
2019-01-13T03:39:07.771Z,83.75
2019-01-13T03:41:36.138Z,83.73
2019-01-13T03:44:03.048Z,83.63
2019-01-13T03:46:29.791Z,83.41
2019-01-13T03:48:56.564Z,83.40
2019-01-13T03:51:27.068Z,83.38
2019-01-13T03:54:02.011Z,83.47
2019-01-13T03:56:28.815Z,83.33
2019-01-13T03:58:55.523Z,83.20
2019-01-13T04:01:24.487Z,82.86
2019-01-13T04:03:52.669Z,82.66
2019-01-13T04:06:19.459Z,82.82
2019-01-13T04:08:46.271Z,82.94
2019-01-13T04:11:15.791Z,83.16
2019-01-13T04:13:45.777Z,83.35
2019-01-13T04:16:12.496Z,83.58
2019-01-13T04:18:39.434Z,83.67
2019-01-13T04:21:06.181Z,83.98
2019-01-13T04:23:34.947Z,83.94
2019-01-13T04:26:06.001Z,83.98
2019-01-13T04:28:32.715Z,84.14
2019-01-13T04:30:59.486Z,84.12
2019-01-13T04:33:30.433Z,83.99
2019-01-13T04:36:01.618Z,83.99
2019-01-13T04:38:28.334Z,83.96
2019-01-13T04:40:55.131Z,83.77
2019-01-13T04:43:21.854Z,83.85
2019-01-13T04:45:48.730Z,84.02
2019-01-13T04:48:15.482Z,84.14
2019-01-13T04:50:42.220Z,84.89
2019-01-13T04:53:10.724Z,85.44
2019-01-13T04:55:41.693Z,85.50
2019-01-13T04:58:08.454Z,85.49
2019-01-13T05:00:35.173Z,85.67
2019-01-13T05:03:02.636Z,85.90
2019-01-13T05:05:30.659Z,86.17
2019-01-13T05:07:57.492Z,86.40
2019-01-13T05:10:26.132Z,86.46
2019-01-13T05:12:54.239Z,86.57
2019-01-13T05:15:20.977Z,86.80
2019-01-13T05:17:47.724Z,86.45
2019-01-13T05:20:15.792Z,86.48
2019-01-13T05:22:42.800Z,86.68
2019-01-13T05:25:09.537Z,86.42
2019-01-13T05:27:36.440Z,86.28
2019-01-13T05:30:06.667Z,86.58
2019-01-13T05:32:33.498Z,86.23
2019-01-13T05:35:00.635Z,85.92
2019-01-13T05:37:28.303Z,85.96
2019-01-13T05:39:56.562Z,86.01
2019-01-13T05:42:26.109Z,86.09
2019-01-13T05:44:52.890Z,86.04
2019-01-13T05:47:19.679Z,86.19
2019-01-13T05:49:47.088Z,86.41
2019-01-13T05:52:13.924Z,86.46
2019-01-13T05:54:40.710Z,86.13
2019-01-13T05:57:07.460Z,85.97
2019-01-13T05:59:34.186Z,86.15
2019-01-13T06:02:00.926Z,86.20
2019-01-13T06:04:30.055Z,86.19
2019-01-13T06:06:56.829Z,86.14
2019-01-13T06:09:23.567Z,85.95
2019-01-13T06:11:50.853Z,85.99
2019-01-13T06:14:17.614Z,86.42
2019-01-13T06:16:44.978Z,86.39
2019-01-13T06:19:11.780Z,86.24
2019-01-13T06:21:38.554Z,86.10
2019-01-13T06:24:05.281Z,86.08
2019-01-13T06:26:32.432Z,86.42
2019-01-13T06:28:59.168Z,86.47
2019-01-13T06:31:26.248Z,86.78
2019-01-13T06:33:53.327Z,86.84
2019-01-13T06:36:20.778Z,86.99
2019-01-13T06:38:47.619Z,86.87
2019-01-13T06:41:14.522Z,86.93
2019-01-13T06:43:41.403Z,86.86
2019-01-13T06:46:08.203Z,87.23
2019-01-13T06:48:34.951Z,87.11
2019-01-13T06:51:01.733Z,87.17
2019-01-13T06:53:28.797Z,87.04
2019-01-13T06:55:55.657Z,86.88
2019-01-13T06:58:22.846Z,86.81
2019-01-13T07:00:49.676Z,86.76
2019-01-13T07:03:17.771Z,86.69
2019-01-13T07:05:44.624Z,86.74
2019-01-13T07:08:11.479Z,87.06
2019-01-13T07:10:38.274Z,87.10
2019-01-13T07:13:05.052Z,87.56
2019-01-13T07:15:31.867Z,87.25
2019-01-13T07:17:58.731Z,87.31
2019-01-13T07:20:25.967Z,87.39
2019-01-13T07:22:52.788Z,87.31
2019-01-13T07:25:19.750Z,87.50
2019-01-13T07:27:46.708Z,87.39
2019-01-13T07:30:15.669Z,87.33
2019-01-13T07:32:42.631Z,87.71
2019-01-13T07:35:09.460Z,87.69
2019-01-13T07:37:36.242Z,87.64
2019-01-13T07:40:05.661Z,88.08
2019-01-13T07:42:32.423Z,88.36
2019-01-13T07:44:59.135Z,88.38
2019-01-13T07:47:25.881Z,88.58
2019-01-13T07:49:52.741Z,88.33
2019-01-13T07:52:19.603Z,88.42
2019-01-13T07:54:46.460Z,88.38
2019-01-13T07:57:13.229Z,88.66
2019-01-13T07:59:39.941Z,88.93
2019-01-13T08:02:06.734Z,88.98
2019-01-13T08:04:33.565Z,89.31
2019-01-13T08:07:00.355Z,89.34
2019-01-13T08:09:27.328Z,89.29
2019-01-13T08:11:54.211Z,89.24
2019-01-13T08:14:21.067Z,89.31
2019-01-13T08:16:47.887Z,89.40
2019-01-13T08:19:16.542Z,89.49
2019-01-13T08:21:43.745Z,89.35
2019-01-13T08:24:10.553Z,89.13
2019-01-13T08:26:37.445Z,89.52
2019-01-13T08:29:04.215Z,89.66
2019-01-13T08:31:31.017Z,89.58
2019-01-13T08:33:58.795Z,89.27
2019-01-13T08:36:25.977Z,89.00
2019-01-13T08:38:53.321Z,89.22
2019-01-13T08:41:20.089Z,89.49
2019-01-13T08:43:46.940Z,89.48
2019-01-13T08:46:15.280Z,89.72
2019-01-13T08:48:42.790Z,89.42
2019-01-13T08:51:09.541Z,89.68
2019-01-13T08:53:36.849Z,89.80
2019-01-13T08:56:05.244Z,89.39
2019-01-13T08:58:32.001Z,89.39
2019-01-13T09:00:59.065Z,89.15
2019-01-13T09:03:28.170Z,89.30
2019-01-13T09:05:54.923Z,89.35
2019-01-13T09:08:21.691Z,89.28
2019-01-13T09:10:48.724Z,89.57
2019-01-13T09:13:15.615Z,89.39
2019-01-13T09:15:42.603Z,89.22
2019-01-13T09:18:09.344Z,89.29
2019-01-13T09:20:36.096Z,89.34
2019-01-13T09:23:03.512Z,89.53
2019-01-13T09:25:34.758Z,89.22
2019-01-13T09:28:01.717Z,89.31
2019-01-13T09:30:29.009Z,89.18
2019-01-13T09:32:55.849Z,89.38
2019-01-13T09:35:22.634Z,89.63
2019-01-13T09:37:49.404Z,89.74
2019-01-13T09:40:21.421Z,89.82
2019-01-13T09:42:48.170Z,89.72
2019-01-13T09:45:15.186Z,89.90
2019-01-13T09:47:41.932Z,90.05
2019-01-13T09:50:11.094Z,89.97
2019-01-13T09:52:37.898Z,89.78
2019-01-13T09:55:05.471Z,89.72
2019-01-13T09:57:35.561Z,89.21
2019-01-13T10:00:04.045Z,89.15
2019-01-13T10:02:31.033Z,89.18
2019-01-13T10:04:57.883Z,89.31
2019-01-13T10:07:27.106Z,88.96
2019-01-13T10:09:53.926Z,89.04
2019-01-13T10:12:20.673Z,89.13
2019-01-13T10:14:47.513Z,89.30
2019-01-13T10:17:14.363Z,89.29
2019-01-13T10:19:43.796Z,89.53
2019-01-13T10:22:10.571Z,89.60
2019-01-13T10:24:37.708Z,89.68
2019-01-13T10:27:04.578Z,89.93
2019-01-13T10:29:31.382Z,89.99
2019-01-13T10:31:58.152Z,89.75
2019-01-13T10:34:25.227Z,89.56
2019-01-13T10:36:52.368Z,89.72
2019-01-13T10:39:19.374Z,89.61
2019-01-13T10:41:49.236Z,89.52
2019-01-13T10:44:16.464Z,89.34
2019-01-13T10:46:45.438Z,89.49
2019-01-13T10:49:14.440Z,89.34
2019-01-13T10:51:41.208Z,89.53
2019-01-13T10:54:09.265Z,89.56
2019-01-13T10:56:36.431Z,89.69
2019-01-13T10:59:03.364Z,89.73
2019-01-13T11:01:30.235Z,89.90
2019-01-13T11:03:57.241Z,89.89
2019-01-13T11:06:24.168Z,90.02
2019-01-13T11:08:57.982Z,89.76
2019-01-13T11:11:30.351Z,89.69
2019-01-13T11:13:57.093Z,89.82
2019-01-13T11:16:26.811Z,90.24
2019-01-13T11:18:53.894Z,90.43
2019-01-13T11:21:20.926Z,90.27
2019-01-13T11:23:48.068Z,90.33
2019-01-13T11:26:14.987Z,90.38
2019-01-13T11:28:41.748Z,90.30
2019-01-13T11:31:08.615Z,90.32
2019-01-13T11:33:35.371Z,90.13
2019-01-13T11:36:02.246Z,90.06
2019-01-13T11:38:29.027Z,89.96
2019-01-13T11:40:55.812Z,89.85
2019-01-13T11:43:22.934Z,89.75
2019-01-13T11:45:52.972Z,89.59
2019-01-13T11:48:21.216Z,89.40
2019-01-13T11:50:48.539Z,89.58
2019-01-13T11:53:15.873Z,89.93
2019-01-13T11:55:47.800Z,89.88
2019-01-13T11:58:15.804Z,89.74
2019-01-13T12:00:45.343Z,89.95
2019-01-13T12:03:16.972Z,90.10
2019-01-13T12:05:43.848Z,90.37
2019-01-13T12:08:10.929Z,90.52
2019-01-13T12:10:37.731Z,90.55
2019-01-13T12:13:04.721Z,90.76
2019-01-13T12:15:31.532Z,90.80
2019-01-13T12:17:58.273Z,90.44
2019-01-13T12:20:31.755Z,90.35
2019-01-13T12:22:58.513Z,90.54
2019-01-13T12:25:25.442Z,90.57
2019-01-13T12:27:55.869Z,90.22
2019-01-13T12:30:25.304Z,90.24
2019-01-13T12:32:52.736Z,90.42
2019-01-13T12:35:19.489Z,90.42
2019-01-13T12:37:46.458Z,90.53
2019-01-13T12:40:19.267Z,90.63
2019-01-13T12:42:46.687Z,90.56
2019-01-13T12:45:20.774Z,91.10
2019-01-13T12:47:55.759Z,90.97
2019-01-13T12:50:27.785Z,90.95
2019-01-13T12:52:56.856Z,90.92
2019-01-13T12:55:23.838Z,91.02
2019-01-13T12:57:54.973Z,90.68
2019-01-13T13:00:24.366Z,90.82
2019-01-13T13:02:51.501Z,90.48
2019-01-13T13:05:18.270Z,90.47
2019-01-13T13:07:45.276Z,90.12
2019-01-13T13:10:24.803Z,89.96
2019-01-13T13:12:51.685Z,89.88
2019-01-13T13:15:18.752Z,89.81
2019-01-13T13:17:48.847Z,90.45
2019-01-13T13:20:18.628Z,90.06
2019-01-13T13:22:45.488Z,89.79
2019-01-13T13:25:12.784Z,89.87
2019-01-13T13:27:44.918Z,90.01
2019-01-13T13:30:19.831Z,90.29
2019-01-13T13:32:48.616Z,90.67
2019-01-13T13:35:15.529Z,91.02
2019-01-13T13:37:42.624Z,90.97
2019-01-13T13:40:24.703Z,90.77
2019-01-13T13:42:51.820Z,90.99
2019-01-13T13:45:18.588Z,90.68
2019-01-13T13:47:51.008Z,90.40
2019-01-13T13:50:24.011Z,90.44
2019-01-13T13:52:50.853Z,90.31
2019-01-13T13:55:17.665Z,90.12
2019-01-13T13:57:44.415Z,89.85
2019-01-13T14:00:22.657Z,90.22
2019-01-13T14:02:49.545Z,90.47
2019-01-13T14:05:16.593Z,90.79
2019-01-13T14:07:47.542Z,90.84
2019-01-13T14:10:17.746Z,91.03
2019-01-13T14:12:44.620Z,91.26
2019-01-13T14:15:11.890Z,91.24
2019-01-13T14:17:39.091Z,92.05
2019-01-13T14:20:08.761Z,93.11
2019-01-13T14:22:36.005Z,89.35
2019-01-13T14:25:04.380Z,88.93
2019-01-13T14:27:31.270Z,89.95
2019-01-13T14:30:00.400Z,89.73
2019-01-13T14:32:27.328Z,90.37
2019-01-13T14:34:55.259Z,91.03
2019-01-13T14:37:22.313Z,90.87
2019-01-13T14:39:50.464Z,91.27
2019-01-13T14:42:17.896Z,91.10
2019-01-13T14:44:45.301Z,91.12
2019-01-13T14:47:12.114Z,91.15
2019-01-13T14:49:39.187Z,91.30
2019-01-13T14:52:06.268Z,91.20
2019-01-13T14:54:40.138Z,91.09
2019-01-13T14:57:06.924Z,90.89
2019-01-13T14:59:33.858Z,90.71
2019-01-13T15:02:00.788Z,90.28
2019-01-13T15:04:27.548Z,89.84
2019-01-13T15:06:54.333Z,89.51
2019-01-13T15:09:21.546Z,89.39
2019-01-13T15:11:49.258Z,89.42
2019-01-13T15:14:16.091Z,89.35
2019-01-13T15:16:42.951Z,89.02
2019-01-13T15:19:09.711Z,88.75
2019-01-13T15:21:36.627Z,88.87
2019-01-13T15:24:03.455Z,88.96
2019-01-13T15:26:30.199Z,88.67
2019-01-13T15:28:58.140Z,88.66
2019-01-13T15:31:25.269Z,88.88
2019-01-13T15:33:54.413Z,88.98
2019-01-13T15:36:23.443Z,89.06
2019-01-13T15:38:50.216Z,88.98
2019-01-13T15:41:17.374Z,89.11
2019-01-13T15:43:44.322Z,89.18
2019-01-13T15:46:11.090Z,89.30
2019-01-13T15:48:37.950Z,89.65
2019-01-13T15:51:04.794Z,89.79
2019-01-13T15:53:31.880Z,90.20
2019-01-13T15:55:58.726Z,91.05
2019-01-13T15:58:25.710Z,91.43
2019-01-13T16:00:52.426Z,91.58
2019-01-13T16:03:19.406Z,91.72
2019-01-13T16:05:46.388Z,91.98
2019-01-13T16:08:14.642Z,92.24
2019-01-13T16:10:41.439Z,92.46
2019-01-13T16:13:08.469Z,92.66
2019-01-13T16:15:35.307Z,92.74
2019-01-13T16:18:02.275Z,92.80
2019-01-13T16:20:34.756Z,92.68
2019-01-13T16:23:01.864Z,92.57
2019-01-13T16:25:29.016Z,92.23
2019-01-13T16:27:55.923Z,92.27
2019-01-13T16:30:26.308Z,92.10
2019-01-13T16:32:53.037Z,91.98
2019-01-13T16:35:19.805Z,91.80
2019-01-13T16:37:47.205Z,91.68
2019-01-13T16:40:19.194Z,91.50
2019-01-13T16:42:46.062Z,91.38
2019-01-13T16:45:13.094Z,91.28
2019-01-13T16:47:39.954Z,91.19
2019-01-13T16:50:12.900Z,90.91
2019-01-13T16:52:39.882Z,90.87
2019-01-13T16:55:07.424Z,90.46
2019-01-13T16:57:34.132Z,90.37
2019-01-13T17:00:01.683Z,90.25
2019-01-13T17:02:33.127Z,90.32
2019-01-13T17:04:57.601Z,90.57
2019-01-13T17:07:24.367Z,90.79
2019-01-13T17:09:51.432Z,91.06
2019-01-13T17:12:18.303Z,91.34
2019-01-13T17:14:45.332Z,91.42
2019-01-13T17:17:12.166Z,91.63
2019-01-13T17:19:39.199Z,91.95
2019-01-13T17:22:06.183Z,92.03
2019-01-13T17:24:32.988Z,92.36
2019-01-13T17:26:59.844Z,92.60
2019-01-13T17:29:26.924Z,92.93
2019-01-13T17:31:53.854Z,93.30
2019-01-13T17:34:20.835Z,93.54
2019-01-13T17:36:47.620Z,93.80
2019-01-13T17:39:14.476Z,93.97
2019-01-13T17:41:43.374Z,94.18
2019-01-13T17:44:11.456Z,94.30
2019-01-13T17:46:38.268Z,94.39
2019-01-13T17:49:05.725Z,94.57
2019-01-13T17:51:32.980Z,94.65
2019-01-13T17:53:59.834Z,94.77
2019-01-13T17:56:26.744Z,94.90
2019-01-13T17:58:53.635Z,94.91
2019-01-13T18:01:30.683Z,95.02
2019-01-13T18:03:57.781Z,95.06
2019-01-13T18:06:27.484Z,95.09
2019-01-13T18:08:54.338Z,95.36
2019-01-13T18:11:21.142Z,95.33
2019-01-13T18:13:47.878Z,95.33
2019-01-13T18:16:15.232Z,95.33
2019-01-13T18:18:43.519Z,95.32
2019-01-13T18:21:10.419Z,95.21
2019-01-13T18:23:37.332Z,95.04
2019-01-13T18:26:04.288Z,94.68
2019-01-13T18:28:31.452Z,94.66
2019-01-13T18:30:58.353Z,94.56
2019-01-13T18:33:27.064Z,94.49
2019-01-13T18:35:53.904Z,94.45
2019-01-13T18:38:22.056Z,94.22
2019-01-13T18:40:49.304Z,93.95
2019-01-13T18:43:16.188Z,93.58
2019-01-13T18:45:43.412Z,93.28
2019-01-13T18:48:10.231Z,92.93
2019-01-13T18:50:37.071Z,92.78
2019-01-13T18:53:06.682Z,92.66
2019-01-13T18:55:33.438Z,92.57
2019-01-13T18:58:00.510Z,92.44
2019-01-13T19:00:32.279Z,92.37
2019-01-13T19:02:59.498Z,92.45
2019-01-13T19:05:26.438Z,92.38
2019-01-13T19:07:53.348Z,92.51
2019-01-13T19:10:32.948Z,92.55
2019-01-13T19:13:07.862Z,92.69
2019-01-13T19:15:34.695Z,92.62
2019-01-13T19:18:01.725Z,92.65
2019-01-13T19:20:32.418Z,92.92
2019-01-13T19:23:11.452Z,93.22
2019-01-13T19:25:38.496Z,93.56
2019-01-13T19:28:05.483Z,93.82
2019-01-13T19:30:32.232Z,94.03
2019-01-13T19:32:59.323Z,94.12
2019-01-13T19:35:26.354Z,94.17
2019-01-13T19:37:53.207Z,95.21
2019-01-13T19:40:20.023Z,95.80
2019-01-13T19:43:12.676Z,96.26
2019-01-13T19:45:39.494Z,96.52
2019-01-13T19:48:06.398Z,96.45
2019-01-13T19:50:33.900Z,95.69
2019-01-13T19:53:01.067Z,94.75
2019-01-13T19:55:27.924Z,93.88
2019-01-13T19:57:54.847Z,92.98
2019-01-13T20:00:30.569Z,92.07
2019-01-13T20:02:57.717Z,91.79
2019-01-13T20:05:24.574Z,91.66
2019-01-13T20:07:51.350Z,91.73
2019-01-13T20:10:19.239Z,91.78
2019-01-13T20:12:46.035Z,91.61
2019-01-13T20:15:14.196Z,91.31
2019-01-13T20:17:41.081Z,91.21
2019-01-13T20:20:09.336Z,90.87
2019-01-13T20:22:37.221Z,90.78
2019-01-13T20:25:06.071Z,90.64
2019-01-13T20:27:32.873Z,90.51
2019-01-13T20:29:59.658Z,90.35
2019-01-13T20:32:26.402Z,89.89
2019-01-13T20:34:54.670Z,89.41
2019-01-13T20:37:24.482Z,89.11
2019-01-13T20:39:51.327Z,88.58
2019-01-13T20:42:18.233Z,88.66
2019-01-13T20:44:45.615Z,88.37
2019-01-13T20:47:12.467Z,88.43
2019-01-13T20:49:39.535Z,87.90
2019-01-13T20:52:06.694Z,87.59
2019-01-13T20:54:33.970Z,87.51
2019-01-13T20:57:00.806Z,87.88
2019-01-13T20:59:27.567Z,87.75
2019-01-13T21:01:54.934Z,87.80
2019-01-13T21:04:21.824Z,87.85
2019-01-13T21:06:48.577Z,88.10
2019-01-13T21:09:15.676Z,88.37
2019-01-13T21:11:42.840Z,88.28
2019-01-13T21:14:10.439Z,88.16
2019-01-13T21:16:37.624Z,88.38
2019-01-13T21:19:04.390Z,88.25
2019-01-13T21:21:31.407Z,88.07
2019-01-13T21:24:01.918Z,88.27
2019-01-13T21:26:29.099Z,88.60
2019-01-13T21:28:56.094Z,89.20
2019-01-13T21:31:23.180Z,89.54
2019-01-13T21:33:49.947Z,89.95
2019-01-13T21:36:16.740Z,90.11
2019-01-13T21:38:45.528Z,90.35
2019-01-13T21:41:12.563Z,90.45
2019-01-13T21:43:39.460Z,90.43
2019-01-13T21:46:06.403Z,90.29
2019-01-13T21:48:33.362Z,90.17
2019-01-13T21:51:00.227Z,90.24
2019-01-13T21:53:27.074Z,90.46
2019-01-13T21:55:53.951Z,91.06
2019-01-13T21:58:20.700Z,91.62
2019-01-13T22:00:47.648Z,91.80
2019-01-13T22:03:15.225Z,92.09
2019-01-13T22:05:42.032Z,92.44
2019-01-13T22:08:08.777Z,92.83
2019-01-13T22:10:35.643Z,92.83
2019-01-13T22:13:02.371Z,93.12
2019-01-13T22:15:30.839Z,92.84
2019-01-13T22:17:59.503Z,92.16
2019-01-13T22:20:26.795Z,92.34
2019-01-13T22:22:53.599Z,91.32
2019-01-13T22:25:20.377Z,90.39
2019-01-13T22:27:47.122Z,86.28
2019-01-13T22:30:16.302Z,84.11
2019-01-13T22:32:43.514Z,84.11
2019-01-13T22:35:10.763Z,83.70
2019-01-13T22:37:37.575Z,82.47
2019-01-13T22:40:05.371Z,81.72
2019-01-13T22:42:32.130Z,80.87
2019-01-13T22:44:58.922Z,80.62
2019-01-13T22:47:28.439Z,80.59
2019-01-13T22:49:55.261Z,80.03
2019-01-13T22:52:24.699Z,80.53
2019-01-13T22:54:51.466Z,80.19
2019-01-13T22:57:18.206Z,80.29
2019-01-13T22:59:44.998Z,80.36
2019-01-13T23:02:11.738Z,81.00
2019-01-13T23:04:38.547Z,81.44
2019-01-13T23:07:05.298Z,81.35
2019-01-13T23:09:32.146Z,81.69
2019-01-13T23:11:59.015Z,81.66
2019-01-13T23:14:26.169Z,81.61
2019-01-13T23:16:53.040Z,81.73
2019-01-13T23:19:19.787Z,81.43
2019-01-13T23:21:46.988Z,80.79
2019-01-13T23:24:13.832Z,81.49
2019-01-13T23:26:43.335Z,81.91
2019-01-13T23:29:10.091Z,81.74
2019-01-13T23:31:37.045Z,81.99
2019-01-13T23:34:03.941Z,81.91
2019-01-13T23:36:30.755Z,81.00
2019-01-13T23:38:58.290Z,80.79
2019-01-13T23:41:25.048Z,80.99
2019-01-13T23:43:51.771Z,80.08
2019-01-13T23:46:18.543Z,79.66
2019-01-13T23:48:45.310Z,80.40
2019-01-13T23:51:12.183Z,80.40
2019-01-13T23:53:40.384Z,80.01
2019-01-13T23:56:07.226Z,80.08
2019-01-13T23:58:33.961Z,79.79
